Pompeu, Brazil
Current Conditions -  °F | °C
As of 10:00 AM on Sunday 21 Dec 2014 (Local Time) from SBLS Reporting Station
Scattered Clouds Scattered Clouds  
Wind Chill: 77°   Ceiling: Unl
Heat Index: 79°   Visibility: 6mi
Dew Point: 66°   Wind: 5mph
Humidity: 69%   Direction: 50°NE
Pressure: 30.09"   Gusts: NA
Location:  19.22°S, 45°W
Report Text: SBLS 211200Z 05004KT 9999 SCT027 25/19 Q1019
Loading
Personal Weather Stations






























Interactive Weather Map New forecast layout! Learn more

10-Day Weather Forecast

Advertisements
Track Severe Weather on mobile